sensor_id;sensor_type;location;lat;lon;timestamp;pressure;altitude;pressure_sealevel;temperature;humidity
50087;BME280;35967;50.718;7.050;2024-01-10T00:03:56;102086.19;;;-6.62;79.74
50087;BME280;35967;50.718;7.050;2024-01-10T00:14:00;102078.34;;;-6.78;79.97
50087;BME280;35967;50.718;7.050;2024-01-10T00:24:06;102068.75;;;-6.60;80.58
50087;BME280;35967;50.718;7.050;2024-01-10T00:34:10;102065.41;;;-6.73;80.34
50087;BME280;35967;50.718;7.050;2024-01-10T00:44:14;102060.91;;;-6.77;82.06
50087;BME280;35967;50.718;7.050;2024-01-10T00:54:19;102050.91;;;-6.89;82.96
50087;BME280;35967;50.718;7.050;2024-01-10T01:04:25;102051.69;;;-6.90;82.65
50087;BME280;35967;50.718;7.050;2024-01-10T01:14:29;102042.63;;;-6.88;82.34
50087;BME280;35967;50.718;7.050;2024-01-10T01:24:34;102038.72;;;-6.84;82.17
50087;BME280;35967;50.718;7.050;2024-01-10T01:34:38;102049.38;;;-6.99;82.85
50087;BME280;35967;50.718;7.050;2024-01-10T01:44:43;102047.88;;;-6.97;83.07
50087;BME280;35967;50.718;7.050;2024-01-10T01:54:46;102043.28;;;-7.02;83.33
50087;BME280;35967;50.718;7.050;2024-01-10T02:04:52;102042.84;;;-7.08;83.80
50087;BME280;35967;50.718;7.050;2024-01-10T02:14:56;102035.06;;;-7.35;83.13
50087;BME280;35967;50.718;7.050;2024-01-10T02:25:01;102024.34;;;-6.99;82.32
50087;BME280;35967;50.718;7.050;2024-01-10T02:35:05;102019.13;;;-7.14;82.76
50087;BME280;35967;50.718;7.050;2024-01-10T02:45:11;102020.75;;;-7.14;83.19
50087;BME280;35967;50.718;7.050;2024-01-10T02:55:14;102028.16;;;-7.16;83.31
50087;BME280;35967;50.718;7.050;2024-01-10T03:05:18;102010.66;;;-7.16;83.81
50087;BME280;35967;50.718;7.050;2024-01-10T03:15:21;102006.41;;;-7.05;83.81
50087;BME280;35967;50.718;7.050;2024-01-10T03:25:26;102011.19;;;-7.08;83.77
50087;BME280;35967;50.718;7.050;2024-01-10T03:35:29;101997.69;;;-7.34;83.67
50087;BME280;35967;50.718;7.050;2024-01-10T03:45:34;101989.41;;;-7.09;84.11
50087;BME280;35967;50.718;7.050;2024-01-10T03:55:37;101989.31;;;-7.10;83.76
50087;BME280;35967;50.718;7.050;2024-01-10T04:05:42;101988.66;;;-7.08;84.36
50087;BME280;35967;50.718;7.050;2024-01-10T04:15:45;101986.38;;;-7.05;84.45
50087;BME280;35967;50.718;7.050;2024-01-10T04:25:50;101992.03;;;-7.07;84.66
50087;BME280;35967;50.718;7.050;2024-01-10T04:35:53;101982.13;;;-7.18;84.96
50087;BME280;35967;50.718;7.050;2024-01-10T04:45:57;101985.38;;;-7.07;84.96
50087;BME280;35967;50.718;7.050;2024-01-10T04:56:00;101986.94;;;-6.97;85.19
50087;BME280;35967;50.718;7.050;2024-01-10T05:06:05;101984.22;;;-7.12;85.90
50087;BME280;35967;50.718;7.050;2024-01-10T05:16:09;101979.72;;;-7.04;86.34
50087;BME280;35967;50.718;7.050;2024-01-10T05:26:13;101986.03;;;-7.21;86.01
50087;BME280;35967;50.718;7.050;2024-01-10T05:36:16;101972.78;;;-7.08;86.47
50087;BME280;35967;50.718;7.050;2024-01-10T05:46:21;101962.13;;;-7.18;86.71
50087;BME280;35967;50.718;7.050;2024-01-10T05:56:24;101968.44;;;-7.35;86.32
50087;BME280;35967;50.718;7.050;2024-01-10T06:06:31;101959.06;;;-7.37;85.40
50087;BME280;35967;50.718;7.050;2024-01-10T06:16:35;101957.00;;;-6.95;85.21
50087;BME280;35967;50.718;7.050;2024-01-10T06:26:39;101956.66;;;-6.88;84.54
50087;BME280;35967;50.718;7.050;2024-01-10T06:37:07;101954.91;;;-6.89;84.83
50087;BME280;35967;50.718;7.050;2024-01-10T06:49:07;101957.28;;;-6.67;87.63
50087;BME280;35967;50.718;7.050;2024-01-10T07:00:43;101973.00;;;-6.82;85.82
50087;BME280;35967;50.718;7.050;2024-01-10T07:12:20;101971.47;;;-7.15;86.43
50087;BME280;35967;50.718;7.050;2024-01-10T07:23:56;101984.09;;;-6.78;86.13
50087;BME280;35967;50.718;7.050;2024-01-10T09:49:18;102026.34;;;-4.38;77.04
50087;BME280;35967;50.718;7.050;2024-01-10T09:59:44;102035.47;;;-4.81;69.66
50087;BME280;35967;50.718;7.050;2024-01-10T10:10:11;102032.94;;;-4.54;68.61
50087;BME280;35967;50.718;7.050;2024-01-10T10:20:39;102026.44;;;-4.08;67.40
50087;BME280;35967;50.718;7.050;2024-01-10T10:31:17;102019.22;;;-3.89;67.34
50087;BME280;35967;50.718;7.050;2024-01-10T10:41:47;102019.03;;;-3.92;66.96
50087;BME280;35967;50.718;7.050;2024-01-10T10:52:33;102017.66;;;-3.87;67.28
50087;BME280;35967;50.718;7.050;2024-01-10T11:03:03;102007.09;;;-3.81;66.76
50087;BME280;35967;50.718;7.050;2024-01-10T11:14:02;102014.72;;;-3.80;67.31
50087;BME280;35967;50.718;7.050;2024-01-10T11:24:31;102011.09;;;-3.55;67.38
50087;BME280;35967;50.718;7.050;2024-01-10T11:35:27;102003.91;;;-3.34;66.93
50087;BME280;35967;50.718;7.050;2024-01-10T11:46:08;101994.69;;;-3.18;64.91
50087;BME280;35967;50.718;7.050;2024-01-10T11:56:40;101982.41;;;-2.82;64.07
50087;BME280;35967;50.718;7.050;2024-01-10T12:07:05;101981.28;;;-2.56;63.80
50087;BME280;35967;50.718;7.050;2024-01-10T12:17:32;101972.13;;;-2.70;64.51
50087;BME280;35967;50.718;7.050;2024-01-10T12:28:05;101967.25;;;-2.50;63.61
50087;BME280;35967;50.718;7.050;2024-01-10T12:38:45;101964.47;;;-2.72;62.84
50087;BME280;35967;50.718;7.050;2024-01-10T12:49:14;101964.50;;;-2.22;62.82
50087;BME280;35967;50.718;7.050;2024-01-10T12:59:44;101948.75;;;-2.34;62.27
50087;BME280;35967;50.718;7.050;2024-01-10T13:10:09;101950.69;;;-1.96;62.41
50087;BME280;35967;50.718;7.050;2024-01-10T13:20:41;101954.81;;;-1.98;62.30
50087;BME280;35967;50.718;7.050;2024-01-10T13:31:11;101959.59;;;-1.86;61.51
50087;BME280;35967;50.718;7.050;2024-01-10T13:41:40;101976.38;;;-1.86;60.71
50087;BME280;35967;50.718;7.050;2024-01-10T13:52:06;101976.06;;;-1.76;60.93
50087;BME280;35967;50.718;7.050;2024-01-10T14:02:34;101969.66;;;-1.53;60.38
50087;BME280;35967;50.718;7.050;2024-01-10T14:12:59;101962.00;;;-1.36;59.20
50087;BME280;35967;50.718;7.050;2024-01-10T14:23:24;101954.56;;;-1.33;59.56
50087;BME280;35967;50.718;7.050;2024-01-10T14:33:49;101951.34;;;-1.13;59.20
50087;BME280;35967;50.718;7.050;2024-01-10T14:44:15;101961.34;;;-1.14;58.72
50087;BME280;35967;50.718;7.050;2024-01-10T14:54:39;101964.09;;;-1.09;58.38
50087;BME280;35967;50.718;7.050;2024-01-10T15:05:05;101987.94;;;-1.04;57.59
50087;BME280;35967;50.718;7.050;2024-01-10T15:15:30;101984.59;;;-1.03;57.04
50087;BME280;35967;50.718;7.050;2024-01-10T15:25:59;102004.41;;;-1.13;56.14
50087;BME280;35967;50.718;7.050;2024-01-10T15:36:33;102003.78;;;-1.25;56.62
50087;BME280;35967;50.718;7.050;2024-01-10T15:46:59;102009.56;;;-1.28;57.32
50087;BME280;35967;50.718;7.050;2024-01-10T15:57:30;102028.56;;;-1.52;58.13
50087;BME280;35967;50.718;7.050;2024-01-10T16:07:58;102039.22;;;-1.58;58.54
50087;BME280;35967;50.718;7.050;2024-01-10T16:18:37;102036.88;;;-1.55;59.21
50087;BME280;35967;50.718;7.050;2024-01-10T16:29:07;102032.63;;;-1.72;59.03
50087;BME280;35967;50.718;7.050;2024-01-10T16:39:32;102030.81;;;-2.08;60.71
50087;BME280;35967;50.718;7.050;2024-01-10T16:50:05;102031.75;;;-2.23;61.14
50087;BME280;35967;50.718;7.050;2024-01-10T17:00:30;102037.41;;;-2.27;63.94
50087;BME280;35967;50.718;7.050;2024-01-10T17:10:57;102028.53;;;-2.51;65.92
50087;BME280;35967;50.718;7.050;2024-01-10T17:33:05;102036.03;;;-2.99;68.85
50087;BME280;35967;50.718;7.050;2024-01-10T17:44:21;102040.22;;;-3.30;69.86
50087;BME280;35967;50.718;7.050;2024-01-10T17:55:28;102045.97;;;-3.18;71.65
50087;BME280;35967;50.718;7.050;2024-01-10T18:06:25;102050.91;;;-3.34;71.90
50087;BME280;35967;50.718;7.050;2024-01-10T18:16:55;102064.97;;;-3.38;73.09
50087;BME280;35967;50.718;7.050;2024-01-10T18:29:09;102077.97;;;-3.30;74.02
50087;BME280;35967;50.718;7.050;2024-01-10T18:50:13;102088.78;;;-3.89;74.46
50087;BME280;35967;50.718;7.050;2024-01-10T19:00:17;102106.59;;;-3.58;74.54
50087;BME280;35967;50.718;7.050;2024-01-10T19:10:26;102117.94;;;-4.20;74.77
50087;BME280;35967;50.718;7.050;2024-01-10T19:20:29;102113.31;;;-4.14;75.54
50087;BME280;35967;50.718;7.050;2024-01-10T19:30:34;102120.84;;;-4.27;75.72
50087;BME280;35967;50.718;7.050;2024-01-10T19:40:38;102123.91;;;-3.91;78.32
50087;BME280;35967;50.718;7.050;2024-01-10T19:50:43;102136.63;;;-4.03;79.15
50087;BME280;35967;50.718;7.050;2024-01-10T20:00:46;102154.69;;;-4.08;79.14
50087;BME280;35967;50.718;7.050;2024-01-10T20:10:51;102162.06;;;-4.38;79.39
50087;BME280;35967;50.718;7.050;2024-01-10T20:20:54;102161.56;;;-4.06;79.89
50087;BME280;35967;50.718;7.050;2024-01-10T20:30:59;102168.34;;;-4.05;79.97
50087;BME280;35967;50.718;7.050;2024-01-10T20:41:04;102174.25;;;-4.31;80.53
50087;BME280;35967;50.718;7.050;2024-01-10T20:51:08;102169.69;;;-4.23;83.66
50087;BME280;35967;50.718;7.050;2024-01-10T21:01:12;102164.66;;;-4.23;80.56
50087;BME280;35967;50.718;7.050;2024-01-10T21:11:17;102162.41;;;-4.72;82.23
50087;BME280;35967;50.718;7.050;2024-01-10T21:21:20;102154.28;;;-4.68;82.88
50087;BME280;35967;50.718;7.050;2024-01-10T21:31:24;102140.97;;;-4.81;83.52
50087;BME280;35967;50.718;7.050;2024-01-10T21:41:28;102169.50;;;-4.92;84.15
50087;BME280;35967;50.718;7.050;2024-01-10T21:51:32;102161.84;;;-5.07;84.36
50087;BME280;35967;50.718;7.050;2024-01-10T22:01:36;102166.50;;;-5.00;83.56
50087;BME280;35967;50.718;7.050;2024-01-10T22:11:40;102177.47;;;-5.11;84.36
50087;BME280;35967;50.718;7.050;2024-01-10T22:21:44;102181.53;;;-5.13;84.96
50087;BME280;35967;50.718;7.050;2024-01-10T22:31:49;102178.66;;;-5.31;85.40
50087;BME280;35967;50.718;7.050;2024-01-10T22:41:52;102189.69;;;-5.29;85.78
50087;BME280;35967;50.718;7.050;2024-01-10T22:51:57;102203.25;;;-5.39;85.91
50087;BME280;35967;50.718;7.050;2024-01-10T23:01:59;102205.78;;;-5.51;86.74
50087;BME280;35967;50.718;7.050;2024-01-10T23:12:04;102220.13;;;-5.62;86.78
50087;BME280;35967;50.718;7.050;2024-01-10T23:22:08;102218.38;;;-5.63;87.04
50087;BME280;35967;50.718;7.050;2024-01-10T23:32:12;102221.22;;;-5.70;88.33
50087;BME280;35967;50.718;7.050;2024-01-10T23:42:15;102221.22;;;-5.70;87.41
50087;BME280;35967;50.718;7.050;2024-01-10T23:52:20;102230.47;;;-5.57;87.69
